sensor_id;sensor_type;location;lat;lon;timestamp;P1;durP1;ratioP1;P2;durP2;ratioP2
12597;SDS011;6364;53.590;9.956;2023-03-09T00:01:56;7.35;;;4.90;;
12597;SDS011;6364;53.590;9.956;2023-03-09T00:04:23;10.50;;;6.25;;
12597;SDS011;6364;53.590;9.956;2023-03-09T00:06:48;9.02;;;5.38;;
12597;SDS011;6364;53.590;9.956;2023-03-09T00:09:14;8.90;;;5.90;;
12597;SDS011;6364;53.590;9.956;2023-03-09T00:11:40;10.40;;;5.60;;
12597;SDS011;6364;53.590;9.956;2023-03-09T00:14:10;12.68;;;5.97;;
12597;SDS011;6364;53.590;9.956;2023-03-09T00:16:37;8.77;;;5.40;;
12597;SDS011;6364;53.590;9.956;2023-03-09T00:19:03;9.38;;;5.88;;
12597;SDS011;6364;53.590;9.956;2023-03-09T00:21:28;8.50;;;5.82;;
12597;SDS011;6364;53.590;9.956;2023-03-09T00:26:36;9.82;;;6.03;;
12597;SDS011;6364;53.590;9.956;2023-03-09T00:29:04;13.35;;;5.75;;
12597;SDS011;6364;53.590;9.956;2023-03-09T00:31:30;9.93;;;5.50;;
12597;SDS011;6364;53.590;9.956;2023-03-09T00:33:55;8.80;;;5.15;;
12597;SDS011;6364;53.590;9.956;2023-03-09T00:36:21;9.98;;;5.40;;
12597;SDS011;6364;53.590;9.956;2023-03-09T00:38:56;11.00;;;5.70;;
12597;SDS011;6364;53.590;9.956;2023-03-09T00:41:23;9.48;;;5.45;;
12597;SDS011;6364;53.590;9.956;2023-03-09T00:43:51;10.40;;;4.82;;
12597;SDS011;6364;53.590;9.956;2023-03-09T00:46:17;10.73;;;5.53;;
12597;SDS011;6364;53.590;9.956;2023-03-09T00:48:42;11.25;;;5.75;;
12597;SDS011;6364;53.590;9.956;2023-03-09T00:51:08;9.23;;;5.15;;
12597;SDS011;6364;53.590;9.956;2023-03-09T00:53:34;9.60;;;5.35;;
12597;SDS011;6364;53.590;9.956;2023-03-09T00:56:01;8.00;;;5.57;;
12597;SDS011;6364;53.590;9.956;2023-03-09T00:58:30;11.55;;;5.15;;
12597;SDS011;6364;53.590;9.956;2023-03-09T01:00:56;10.93;;;5.05;;
12597;SDS011;6364;53.590;9.956;2023-03-09T01:03:21;7.85;;;4.80;;
12597;SDS011;6364;53.590;9.956;2023-03-09T01:05:47;7.97;;;4.85;;
12597;SDS011;6364;53.590;9.956;2023-03-09T01:08:12;6.43;;;4.30;;
12597;SDS011;6364;53.590;9.956;2023-03-09T01:10:38;9.00;;;5.30;;
12597;SDS011;6364;53.590;9.956;2023-03-09T01:13:03;12.65;;;4.75;;
12597;SDS011;6364;53.590;9.956;2023-03-09T01:15:29;9.48;;;5.20;;
12597;SDS011;6364;53.590;9.956;2023-03-09T01:17:54;8.32;;;4.90;;
12597;SDS011;6364;53.590;9.956;2023-03-09T01:20:19;10.68;;;5.82;;
12597;SDS011;6364;53.590;9.956;2023-03-09T01:22:45;9.43;;;5.10;;
12597;SDS011;6364;53.590;9.956;2023-03-09T01:25:10;12.55;;;5.10;;
12597;SDS011;6364;53.590;9.956;2023-03-09T01:27:35;7.22;;;4.55;;
12597;SDS011;6364;53.590;9.956;2023-03-09T01:30:01;7.20;;;5.10;;
12597;SDS011;6364;53.590;9.956;2023-03-09T01:32:26;9.52;;;5.50;;
12597;SDS011;6364;53.590;9.956;2023-03-09T01:34:51;7.82;;;5.50;;
12597;SDS011;6364;53.590;9.956;2023-03-09T01:37:17;7.32;;;5.38;;
12597;SDS011;6364;53.590;9.956;2023-03-09T01:39:43;9.85;;;5.30;;
12597;SDS011;6364;53.590;9.956;2023-03-09T01:42:09;8.65;;;5.35;;
12597;SDS011;6364;53.590;9.956;2023-03-09T01:44:34;8.43;;;5.60;;
12597;SDS011;6364;53.590;9.956;2023-03-09T01:47:00;9.13;;;5.25;;
12597;SDS011;6364;53.590;9.956;2023-03-09T01:54:42;8.50;;;5.05;;
12597;SDS011;6364;53.590;9.956;2023-03-09T01:57:25;9.20;;;5.45;;
12597;SDS011;6364;53.590;9.956;2023-03-09T01:59:53;8.68;;;5.00;;
12597;SDS011;6364;53.590;9.956;2023-03-09T02:02:23;10.07;;;5.22;;
12597;SDS011;6364;53.590;9.956;2023-03-09T02:04:54;9.52;;;5.70;;
12597;SDS011;6364;53.590;9.956;2023-03-09T02:07:22;9.48;;;5.45;;
12597;SDS011;6364;53.590;9.956;2023-03-09T02:09:53;8.38;;;5.45;;
12597;SDS011;6364;53.590;9.956;2023-03-09T02:14:48;8.48;;;5.30;;
12597;SDS011;6364;53.590;9.956;2023-03-09T02:17:14;15.63;;;5.43;;
12597;SDS011;6364;53.590;9.956;2023-03-09T02:19:44;8.93;;;5.03;;
12597;SDS011;6364;53.590;9.956;2023-03-09T02:22:15;8.45;;;4.95;;
12597;SDS011;6364;53.590;9.956;2023-03-09T02:24:55;9.60;;;5.45;;
12597;SDS011;6364;53.590;9.956;2023-03-09T02:27:26;9.70;;;5.13;;
12597;SDS011;6364;53.590;9.956;2023-03-09T02:29:53;7.50;;;5.25;;
12597;SDS011;6364;53.590;9.956;2023-03-09T02:32:18;9.00;;;5.75;;
12597;SDS011;6364;53.590;9.956;2023-03-09T02:34:44;9.05;;;5.28;;
12597;SDS011;6364;53.590;9.956;2023-03-09T02:39:47;8.45;;;4.93;;
12597;SDS011;6364;53.590;9.956;2023-03-09T02:42:14;8.43;;;5.85;;
12597;SDS011;6364;53.590;9.956;2023-03-09T02:44:41;8.55;;;5.82;;
12597;SDS011;6364;53.590;9.956;2023-03-09T02:47:08;8.27;;;5.25;;
12597;SDS011;6364;53.590;9.956;2023-03-09T02:49:34;8.95;;;4.88;;
12597;SDS011;6364;53.590;9.956;2023-03-09T02:52:00;9.68;;;5.57;;
12597;SDS011;6364;53.590;9.956;2023-03-09T02:54:26;8.45;;;5.30;;
12597;SDS011;6364;53.590;9.956;2023-03-09T02:56:51;9.10;;;5.10;;
12597;SDS011;6364;53.590;9.956;2023-03-09T02:59:16;9.10;;;5.82;;
12597;SDS011;6364;53.590;9.956;2023-03-09T03:01:42;12.40;;;5.80;;
12597;SDS011;6364;53.590;9.956;2023-03-09T03:04:07;8.50;;;5.45;;
12597;SDS011;6364;53.590;9.956;2023-03-09T03:06:32;8.32;;;5.65;;
12597;SDS011;6364;53.590;9.956;2023-03-09T03:08:58;10.23;;;6.32;;
12597;SDS011;6364;53.590;9.956;2023-03-09T03:11:23;10.35;;;5.97;;
12597;SDS011;6364;53.590;9.956;2023-03-09T03:13:48;7.95;;;5.25;;
12597;SDS011;6364;53.590;9.956;2023-03-09T03:16:14;10.00;;;5.65;;
12597;SDS011;6364;53.590;9.956;2023-03-09T03:18:39;10.77;;;5.85;;
12597;SDS011;6364;53.590;9.956;2023-03-09T03:21:04;8.35;;;5.53;;
12597;SDS011;6364;53.590;9.956;2023-03-09T03:23:30;11.95;;;5.88;;
12597;SDS011;6364;53.590;9.956;2023-03-09T03:25:55;13.25;;;6.15;;
12597;SDS011;6364;53.590;9.956;2023-03-09T03:28:20;14.15;;;5.95;;
12597;SDS011;6364;53.590;9.956;2023-03-09T03:30:52;13.55;;;6.03;;
12597;SDS011;6364;53.590;9.956;2023-03-09T03:33:17;10.75;;;5.70;;
12597;SDS011;6364;53.590;9.956;2023-03-09T03:35:43;12.02;;;6.32;;
12597;SDS011;6364;53.590;9.956;2023-03-09T03:38:08;9.80;;;6.63;;
12597;SDS011;6364;53.590;9.956;2023-03-09T03:40:33;12.57;;;5.65;;
12597;SDS011;6364;53.590;9.956;2023-03-09T03:42:58;11.57;;;6.18;;
12597;SDS011;6364;53.590;9.956;2023-03-09T03:45:24;10.05;;;5.60;;
12597;SDS011;6364;53.590;9.956;2023-03-09T03:47:50;11.55;;;6.13;;
12597;SDS011;6364;53.590;9.956;2023-03-09T03:50:15;11.35;;;6.00;;
12597;SDS011;6364;53.590;9.956;2023-03-09T03:52:41;10.15;;;6.00;;
12597;SDS011;6364;53.590;9.956;2023-03-09T03:55:06;9.35;;;6.43;;
12597;SDS011;6364;53.590;9.956;2023-03-09T03:57:32;9.88;;;5.40;;
12597;SDS011;6364;53.590;9.956;2023-03-09T03:59:57;14.73;;;6.70;;
12597;SDS011;6364;53.590;9.956;2023-03-09T04:02:22;9.50;;;6.20;;
12597;SDS011;6364;53.590;9.956;2023-03-09T04:04:48;9.50;;;6.10;;
12597;SDS011;6364;53.590;9.956;2023-03-09T04:07:13;16.77;;;6.70;;
12597;SDS011;6364;53.590;9.956;2023-03-09T04:09:38;9.57;;;6.47;;
12597;SDS011;6364;53.590;9.956;2023-03-09T04:12:04;13.10;;;6.90;;
12597;SDS011;6364;53.590;9.956;2023-03-09T04:14:30;12.02;;;6.25;;
12597;SDS011;6364;53.590;9.956;2023-03-09T04:16:57;12.43;;;6.28;;
12597;SDS011;6364;53.590;9.956;2023-03-09T04:19:22;12.05;;;6.95;;
12597;SDS011;6364;53.590;9.956;2023-03-09T04:21:47;11.88;;;7.10;;
12597;SDS011;6364;53.590;9.956;2023-03-09T04:24:12;13.35;;;6.65;;
12597;SDS011;6364;53.590;9.956;2023-03-09T04:26:38;11.98;;;7.03;;
12597;SDS011;6364;53.590;9.956;2023-03-09T04:29:03;12.65;;;6.85;;
12597;SDS011;6364;53.590;9.956;2023-03-09T04:31:28;12.25;;;7.25;;
12597;SDS011;6364;53.590;9.956;2023-03-09T04:33:54;11.75;;;6.97;;
12597;SDS011;6364;53.590;9.956;2023-03-09T04:36:19;11.30;;;7.15;;
12597;SDS011;6364;53.590;9.956;2023-03-09T04:38:44;12.65;;;7.25;;
12597;SDS011;6364;53.590;9.956;2023-03-09T04:41:12;13.45;;;7.38;;
12597;SDS011;6364;53.590;9.956;2023-03-09T04:43:38;11.68;;;7.20;;
12597;SDS011;6364;53.590;9.956;2023-03-09T04:46:03;14.13;;;7.45;;
12597;SDS011;6364;53.590;9.956;2023-03-09T04:48:29;13.65;;;7.50;;
12597;SDS011;6364;53.590;9.956;2023-03-09T04:50:54;14.25;;;7.65;;
12597;SDS011;6364;53.590;9.956;2023-03-09T04:53:19;15.65;;;7.55;;
12597;SDS011;6364;53.590;9.956;2023-03-09T04:55:45;15.05;;;8.50;;
12597;SDS011;6364;53.590;9.956;2023-03-09T04:58:10;14.07;;;7.95;;
12597;SDS011;6364;53.590;9.956;2023-03-09T05:00:35;12.70;;;7.63;;
12597;SDS011;6364;53.590;9.956;2023-03-09T05:03:00;14.45;;;7.78;;
12597;SDS011;6364;53.590;9.956;2023-03-09T05:05:26;14.45;;;8.07;;
12597;SDS011;6364;53.590;9.956;2023-03-09T05:07:51;11.70;;;7.35;;
12597;SDS011;6364;53.590;9.956;2023-03-09T05:10:16;16.92;;;8.20;;
12597;SDS011;6364;53.590;9.956;2023-03-09T05:12:42;13.20;;;7.75;;
12597;SDS011;6364;53.590;9.956;2023-03-09T05:15:08;13.38;;;8.18;;
12597;SDS011;6364;53.590;9.956;2023-03-09T05:17:34;14.50;;;8.68;;
12597;SDS011;6364;53.590;9.956;2023-03-09T05:19:59;14.85;;;8.93;;
12597;SDS011;6364;53.590;9.956;2023-03-09T05:22:25;15.23;;;8.40;;
12597;SDS011;6364;53.590;9.956;2023-03-09T05:24:50;19.17;;;8.77;;
12597;SDS011;6364;53.590;9.956;2023-03-09T05:27:15;15.10;;;8.68;;
12597;SDS011;6364;53.590;9.956;2023-03-09T05:29:41;19.83;;;9.98;;
12597;SDS011;6364;53.590;9.956;2023-03-09T05:32:06;16.02;;;8.77;;
12597;SDS011;6364;53.590;9.956;2023-03-09T05:34:33;14.40;;;8.82;;
12597;SDS011;6364;53.590;9.956;2023-03-09T05:36:58;16.95;;;8.88;;
12597;SDS011;6364;53.590;9.956;2023-03-09T05:39:23;15.80;;;9.07;;
12597;SDS011;6364;53.590;9.956;2023-03-09T05:41:49;16.08;;;9.73;;
12597;SDS011;6364;53.590;9.956;2023-03-09T05:44:14;17.02;;;9.32;;
12597;SDS011;6364;53.590;9.956;2023-03-09T05:46:39;17.63;;;9.93;;
12597;SDS011;6364;53.590;9.956;2023-03-09T05:49:05;19.00;;;10.10;;
12597;SDS011;6364;53.590;9.956;2023-03-09T05:51:30;20.75;;;10.68;;
12597;SDS011;6364;53.590;9.956;2023-03-09T05:53:55;17.42;;;9.73;;
12597;SDS011;6364;53.590;9.956;2023-03-09T05:56:21;18.15;;;9.60;;
12597;SDS011;6364;53.590;9.956;2023-03-09T05:58:50;17.13;;;9.52;;
12597;SDS011;6364;53.590;9.956;2023-03-09T06:01:22;18.48;;;9.77;;
12597;SDS011;6364;53.590;9.956;2023-03-09T06:03:49;13.52;;;7.68;;
12597;SDS011;6364;53.590;9.956;2023-03-09T06:06:14;18.60;;;10.10;;
12597;SDS011;6364;53.590;9.956;2023-03-09T06:08:39;17.98;;;10.55;;
12597;SDS011;6364;53.590;9.956;2023-03-09T06:11:05;17.38;;;10.43;;
12597;SDS011;6364;53.590;9.956;2023-03-09T06:13:30;17.67;;;10.63;;
12597;SDS011;6364;53.590;9.956;2023-03-09T06:15:56;21.83;;;10.10;;
12597;SDS011;6364;53.590;9.956;2023-03-09T06:18:21;20.60;;;10.45;;
12597;SDS011;6364;53.590;9.956;2023-03-09T06:20:47;21.27;;;10.60;;
12597;SDS011;6364;53.590;9.956;2023-03-09T06:23:13;24.67;;;10.60;;
12597;SDS011;6364;53.590;9.956;2023-03-09T06:25:38;17.33;;;10.23;;
12597;SDS011;6364;53.590;9.956;2023-03-09T06:28:04;21.40;;;10.50;;
12597;SDS011;6364;53.590;9.956;2023-03-09T06:30:29;17.58;;;9.85;;
12597;SDS011;6364;53.590;9.956;2023-03-09T06:32:55;19.08;;;10.77;;
12597;SDS011;6364;53.590;9.956;2023-03-09T06:35:21;19.13;;;10.63;;
12597;SDS011;6364;53.590;9.956;2023-03-09T06:37:47;21.38;;;10.73;;
12597;SDS011;6364;53.590;9.956;2023-03-09T06:40:12;18.75;;;10.80;;
12597;SDS011;6364;53.590;9.956;2023-03-09T06:42:38;21.83;;;10.95;;
12597;SDS011;6364;53.590;9.956;2023-03-09T06:45:05;23.20;;;11.10;;
12597;SDS011;6364;53.590;9.956;2023-03-09T06:47:31;21.35;;;11.02;;
12597;SDS011;6364;53.590;9.956;2023-03-09T06:49:56;19.75;;;11.05;;
12597;SDS011;6364;53.590;9.956;2023-03-09T06:52:21;19.33;;;11.20;;
12597;SDS011;6364;53.590;9.956;2023-03-09T06:54:47;19.85;;;11.02;;
12597;SDS011;6364;53.590;9.956;2023-03-09T06:57:13;20.05;;;11.15;;
12597;SDS011;6364;53.590;9.956;2023-03-09T06:59:38;19.92;;;11.50;;
12597;SDS011;6364;53.590;9.956;2023-03-09T07:02:03;19.58;;;11.23;;
12597;SDS011;6364;53.590;9.956;2023-03-09T07:04:29;21.08;;;11.43;;
12597;SDS011;6364;53.590;9.956;2023-03-09T07:06:54;23.40;;;11.05;;
12597;SDS011;6364;53.590;9.956;2023-03-09T07:09:19;19.17;;;10.98;;
12597;SDS011;6364;53.590;9.956;2023-03-09T07:11:45;21.15;;;11.77;;
12597;SDS011;6364;53.590;9.956;2023-03-09T07:14:11;18.55;;;10.35;;
12597;SDS011;6364;53.590;9.956;2023-03-09T07:16:37;21.60;;;10.68;;
12597;SDS011;6364;53.590;9.956;2023-03-09T07:19:02;19.88;;;11.25;;
12597;SDS011;6364;53.590;9.956;2023-03-09T07:21:27;19.90;;;11.18;;
12597;SDS011;6364;53.590;9.956;2023-03-09T07:23:52;19.50;;;11.77;;
12597;SDS011;6364;53.590;9.956;2023-03-09T07:26:18;19.30;;;11.48;;
12597;SDS011;6364;53.590;9.956;2023-03-09T07:28:45;22.30;;;10.48;;
12597;SDS011;6364;53.590;9.956;2023-03-09T07:31:11;20.23;;;11.30;;
12597;SDS011;6364;53.590;9.956;2023-03-09T07:33:37;20.52;;;11.23;;
12597;SDS011;6364;53.590;9.956;2023-03-09T07:36:03;23.02;;;11.05;;
12597;SDS011;6364;53.590;9.956;2023-03-09T07:38:32;20.90;;;11.35;;
12597;SDS011;6364;53.590;9.956;2023-03-09T07:40:58;20.98;;;11.27;;
12597;SDS011;6364;53.590;9.956;2023-03-09T07:43:24;22.27;;;11.43;;
12597;SDS011;6364;53.590;9.956;2023-03-09T07:45:49;21.52;;;11.27;;
12597;SDS011;6364;53.590;9.956;2023-03-09T07:48:15;18.80;;;10.65;;
12597;SDS011;6364;53.590;9.956;2023-03-09T07:50:41;21.23;;;10.30;;
12597;SDS011;6364;53.590;9.956;2023-03-09T07:53:06;18.60;;;11.13;;
12597;SDS011;6364;53.590;9.956;2023-03-09T07:55:32;16.80;;;10.23;;
12597;SDS011;6364;53.590;9.956;2023-03-09T07:57:59;21.45;;;9.90;;
12597;SDS011;6364;53.590;9.956;2023-03-09T08:00:24;17.85;;;10.93;;
12597;SDS011;6364;53.590;9.956;2023-03-09T08:02:53;19.10;;;10.20;;
12597;SDS011;6364;53.590;9.956;2023-03-09T08:05:18;20.60;;;10.30;;
12597;SDS011;6364;53.590;9.956;2023-03-09T08:07:43;20.20;;;11.10;;
12597;SDS011;6364;53.590;9.956;2023-03-09T08:10:11;19.17;;;10.73;;
12597;SDS011;6364;53.590;9.956;2023-03-09T08:12:38;17.98;;;9.90;;
12597;SDS011;6364;53.590;9.956;2023-03-09T08:15:04;16.77;;;10.10;;
12597;SDS011;6364;53.590;9.956;2023-03-09T08:17:30;18.65;;;10.60;;
12597;SDS011;6364;53.590;9.956;2023-03-09T08:19:55;19.90;;;10.40;;
12597;SDS011;6364;53.590;9.956;2023-03-09T08:22:20;18.10;;;10.57;;
12597;SDS011;6364;53.590;9.956;2023-03-09T08:24:46;19.77;;;10.20;;
12597;SDS011;6364;53.590;9.956;2023-03-09T08:27:11;17.73;;;10.57;;
12597;SDS011;6364;53.590;9.956;2023-03-09T08:29:36;18.42;;;10.07;;
12597;SDS011;6364;53.590;9.956;2023-03-09T08:32:05;18.65;;;9.77;;
12597;SDS011;6364;53.590;9.956;2023-03-09T08:34:31;16.83;;;9.45;;
12597;SDS011;6364;53.590;9.956;2023-03-09T08:36:57;14.48;;;9.45;;
12597;SDS011;6364;53.590;9.956;2023-03-09T08:39:22;18.08;;;9.45;;
12597;SDS011;6364;53.590;9.956;2023-03-09T08:41:47;19.08;;;9.15;;
12597;SDS011;6364;53.590;9.956;2023-03-09T08:44:13;15.93;;;9.32;;
12597;SDS011;6364;53.590;9.956;2023-03-09T08:46:38;13.27;;;7.78;;
12597;SDS011;6364;53.590;9.956;2023-03-09T08:49:03;19.15;;;9.30;;
12597;SDS011;6364;53.590;9.956;2023-03-09T08:51:28;18.08;;;8.93;;
12597;SDS011;6364;53.590;9.956;2023-03-09T08:53:54;14.63;;;9.20;;
12597;SDS011;6364;53.590;9.956;2023-03-09T08:56:20;16.75;;;9.13;;
12597;SDS011;6364;53.590;9.956;2023-03-09T08:58:46;16.58;;;10.27;;
12597;SDS011;6364;53.590;9.956;2023-03-09T09:01:12;16.65;;;9.43;;
12597;SDS011;6364;53.590;9.956;2023-03-09T09:03:37;15.07;;;8.38;;
12597;SDS011;6364;53.590;9.956;2023-03-09T09:06:07;15.85;;;8.68;;
12597;SDS011;6364;53.590;9.956;2023-03-09T09:08:37;18.92;;;7.95;;
12597;SDS011;6364;53.590;9.956;2023-03-09T09:11:07;15.98;;;8.30;;
12597;SDS011;6364;53.590;9.956;2023-03-09T09:13:33;14.32;;;8.25;;
12597;SDS011;6364;53.590;9.956;2023-03-09T09:15:58;14.80;;;7.57;;
12597;SDS011;6364;53.590;9.956;2023-03-09T09:18:24;10.63;;;7.20;;
12597;SDS011;6364;53.590;9.956;2023-03-09T09:20:50;13.45;;;7.10;;
12597;SDS011;6364;53.590;9.956;2023-03-09T09:23:15;11.20;;;7.55;;
12597;SDS011;6364;53.590;9.956;2023-03-09T09:25:41;11.60;;;7.07;;
12597;SDS011;6364;53.590;9.956;2023-03-09T09:28:06;10.63;;;6.85;;
12597;SDS011;6364;53.590;9.956;2023-03-09T09:30:32;10.63;;;6.13;;
12597;SDS011;6364;53.590;9.956;2023-03-09T09:32:58;13.55;;;6.57;;
12597;SDS011;6364;53.590;9.956;2023-03-09T09:35:24;10.00;;;6.90;;
12597;SDS011;6364;53.590;9.956;2023-03-09T09:37:49;14.38;;;7.65;;
12597;SDS011;6364;53.590;9.956;2023-03-09T09:40:16;10.02;;;6.68;;
12597;SDS011;6364;53.590;9.956;2023-03-09T09:42:42;11.38;;;7.43;;
12597;SDS011;6364;53.590;9.956;2023-03-09T09:45:27;10.35;;;6.93;;
12597;SDS011;6364;53.590;9.956;2023-03-09T09:47:56;11.90;;;6.75;;
12597;SDS011;6364;53.590;9.956;2023-03-09T09:50:26;11.48;;;6.97;;
12597;SDS011;6364;53.590;9.956;2023-03-09T09:53:00;12.90;;;7.35;;
12597;SDS011;6364;53.590;9.956;2023-03-09T09:55:35;12.02;;;7.03;;
12597;SDS011;6364;53.590;9.956;2023-03-09T09:58:12;18.85;;;7.40;;
12597;SDS011;6364;53.590;9.956;2023-03-09T10:00:41;8.93;;;6.68;;
12597;SDS011;6364;53.590;9.956;2023-03-09T10:03:20;12.25;;;6.82;;
12597;SDS011;6364;53.590;9.956;2023-03-09T10:13:45;7.35;;;4.70;;
12597;SDS011;6364;53.590;9.956;2023-03-09T10:16:16;10.35;;;6.18;;
12597;SDS011;6364;53.590;9.956;2023-03-09T10:18:46;11.38;;;6.70;;
12597;SDS011;6364;53.590;9.956;2023-03-09T10:21:28;11.45;;;6.38;;
12597;SDS011;6364;53.590;9.956;2023-03-09T10:24:00;14.88;;;6.97;;
12597;SDS011;6364;53.590;9.956;2023-03-09T10:26:43;11.30;;;6.38;;
12597;SDS011;6364;53.590;9.956;2023-03-09T10:29:17;15.60;;;6.82;;
12597;SDS011;6364;53.590;9.956;2023-03-09T10:31:48;10.65;;;6.88;;
12597;SDS011;6364;53.590;9.956;2023-03-09T10:34:18;10.15;;;6.72;;
12597;SDS011;6364;53.590;9.956;2023-03-09T10:36:49;13.32;;;7.00;;
12597;SDS011;6364;53.590;9.956;2023-03-09T10:39:34;12.38;;;7.10;;
12597;SDS011;6364;53.590;9.956;2023-03-09T10:42:40;9.73;;;6.53;;
12597;SDS011;6364;53.590;9.956;2023-03-09T10:45:43;9.45;;;6.53;;
12597;SDS011;6364;53.590;9.956;2023-03-09T10:48:03;10.85;;;6.38;;
12597;SDS011;6364;53.590;9.956;2023-03-09T10:50:35;11.13;;;6.60;;
12597;SDS011;6364;53.590;9.956;2023-03-09T10:53:14;12.75;;;7.00;;
12597;SDS011;6364;53.590;9.956;2023-03-09T10:55:48;11.77;;;6.72;;
12597;SDS011;6364;53.590;9.956;2023-03-09T10:58:18;10.95;;;6.80;;
12597;SDS011;6364;53.590;9.956;2023-03-09T11:03:20;12.68;;;6.78;;
12597;SDS011;6364;53.590;9.956;2023-03-09T11:05:47;10.00;;;6.47;;
12597;SDS011;6364;53.590;9.956;2023-03-09T11:08:23;10.38;;;6.53;;
12597;SDS011;6364;53.590;9.956;2023-03-09T11:10:59;11.48;;;6.50;;
12597;SDS011;6364;53.590;9.956;2023-03-09T11:13:26;10.15;;;6.90;;
12597;SDS011;6364;53.590;9.956;2023-03-09T11:16:04;8.95;;;6.25;;
12597;SDS011;6364;53.590;9.956;2023-03-09T11:18:40;13.10;;;6.78;;
12597;SDS011;6364;53.590;9.956;2023-03-09T11:21:05;11.70;;;7.18;;
12597;SDS011;6364;53.590;9.956;2023-03-09T11:23:36;10.65;;;6.97;;
12597;SDS011;6364;53.590;9.956;2023-03-09T11:26:07;11.43;;;6.57;;
12597;SDS011;6364;53.590;9.956;2023-03-09T11:31:25;12.10;;;6.63;;
12597;SDS011;6364;53.590;9.956;2023-03-09T11:34:02;11.27;;;6.57;;
12597;SDS011;6364;53.590;9.956;2023-03-09T11:36:32;11.05;;;6.75;;
12597;SDS011;6364;53.590;9.956;2023-03-09T11:39:03;11.50;;;6.43;;
12597;SDS011;6364;53.590;9.956;2023-03-09T11:41:33;9.95;;;6.95;;
12597;SDS011;6364;53.590;9.956;2023-03-09T11:44:01;8.77;;;6.07;;
12597;SDS011;6364;53.590;9.956;2023-03-09T11:46:30;11.95;;;7.03;;
12597;SDS011;6364;53.590;9.956;2023-03-09T11:49:06;10.93;;;7.10;;
12597;SDS011;6364;53.590;9.956;2023-03-09T11:51:39;9.57;;;6.38;;
12597;SDS011;6364;53.590;9.956;2023-03-09T11:56:51;10.90;;;6.60;;
12597;SDS011;6364;53.590;9.956;2023-03-09T12:04:45;9.48;;;6.60;;
12597;SDS011;6364;53.590;9.956;2023-03-09T12:07:15;8.65;;;5.97;;
12597;SDS011;6364;53.590;9.956;2023-03-09T12:09:47;8.30;;;6.25;;
12597;SDS011;6364;53.590;9.956;2023-03-09T12:12:26;11.27;;;6.85;;
12597;SDS011;6364;53.590;9.956;2023-03-09T12:14:57;12.20;;;6.22;;
12597;SDS011;6364;53.590;9.956;2023-03-09T12:17:31;9.80;;;6.28;;
12597;SDS011;6364;53.590;9.956;2023-03-09T12:20:02;11.45;;;6.18;;
12597;SDS011;6364;53.590;9.956;2023-03-09T12:24:59;8.55;;;5.47;;
12597;SDS011;6364;53.590;9.956;2023-03-09T12:27:32;9.75;;;6.15;;
12597;SDS011;6364;53.590;9.956;2023-03-09T12:30:09;12.73;;;6.40;;
12597;SDS011;6364;53.590;9.956;2023-03-09T12:32:43;10.48;;;6.32;;
12597;SDS011;6364;53.590;9.956;2023-03-09T12:35:13;8.38;;;5.60;;
12597;SDS011;6364;53.590;9.956;2023-03-09T12:42:40;7.57;;;5.75;;
12597;SDS011;6364;53.590;9.956;2023-03-09T12:47:37;9.70;;;6.10;;
12597;SDS011;6364;53.590;9.956;2023-03-09T12:53:21;9.65;;;6.45;;
12597;SDS011;6364;53.590;9.956;2023-03-09T12:56:00;8.02;;;6.10;;
12597;SDS011;6364;53.590;9.956;2023-03-09T13:03:48;9.98;;;7.00;;
12597;SDS011;6364;53.590;9.956;2023-03-09T13:11:38;12.57;;;6.95;;
12597;SDS011;6364;53.590;9.956;2023-03-09T13:14:17;10.48;;;6.95;;
12597;SDS011;6364;53.590;9.956;2023-03-09T13:19:54;7.10;;;5.55;;
12597;SDS011;6364;53.590;9.956;2023-03-09T13:22:41;12.13;;;6.80;;
12597;SDS011;6364;53.590;9.956;2023-03-09T13:25:25;9.38;;;6.28;;
12597;SDS011;6364;53.590;9.956;2023-03-09T13:27:56;10.85;;;5.93;;
12597;SDS011;6364;53.590;9.956;2023-03-09T13:30:26;9.18;;;6.43;;
12597;SDS011;6364;53.590;9.956;2023-03-09T13:32:58;9.75;;;6.55;;
12597;SDS011;6364;53.590;9.956;2023-03-09T13:35:30;7.72;;;5.97;;
12597;SDS011;6364;53.590;9.956;2023-03-09T13:38:00;10.20;;;6.78;;
12597;SDS011;6364;53.590;9.956;2023-03-09T13:40:30;10.68;;;6.38;;
12597;SDS011;6364;53.590;9.956;2023-03-09T13:42:57;10.98;;;6.32;;
12597;SDS011;6364;53.590;9.956;2023-03-09T13:45:27;8.68;;;6.05;;
12597;SDS011;6364;53.590;9.956;2023-03-09T13:47:57;8.73;;;6.78;;
12597;SDS011;6364;53.590;9.956;2023-03-09T13:50:24;12.00;;;6.90;;
12597;SDS011;6364;53.590;9.956;2023-03-09T13:52:58;9.05;;;6.53;;
12597;SDS011;6364;53.590;9.956;2023-03-09T13:55:23;10.57;;;6.10;;
12597;SDS011;6364;53.590;9.956;2023-03-09T13:57:51;10.20;;;6.85;;
12597;SDS011;6364;53.590;9.956;2023-03-09T14:00:17;11.50;;;6.70;;
12597;SDS011;6364;53.590;9.956;2023-03-09T14:02:45;8.68;;;6.45;;
12597;SDS011;6364;53.590;9.956;2023-03-09T14:07:42;11.48;;;6.80;;
12597;SDS011;6364;53.590;9.956;2023-03-09T14:10:52;9.73;;;6.70;;
12597;SDS011;6364;53.590;9.956;2023-03-09T14:13:00;10.95;;;6.05;;
12597;SDS011;6364;53.590;9.956;2023-03-09T14:15:28;10.30;;;6.88;;
12597;SDS011;6364;53.590;9.956;2023-03-09T14:17:53;11.50;;;7.15;;
12597;SDS011;6364;53.590;9.956;2023-03-09T14:20:28;9.98;;;6.60;;
12597;SDS011;6364;53.590;9.956;2023-03-09T14:22:57;10.43;;;6.95;;
12597;SDS011;6364;53.590;9.956;2023-03-09T14:27:52;10.20;;;6.45;;
12597;SDS011;6364;53.590;9.956;2023-03-09T14:32:59;13.27;;;7.28;;
12597;SDS011;6364;53.590;9.956;2023-03-09T14:35:32;8.98;;;6.53;;
12597;SDS011;6364;53.590;9.956;2023-03-09T14:38:02;9.35;;;6.93;;
12597;SDS011;6364;53.590;9.956;2023-03-09T14:40:40;7.10;;;5.85;;
12597;SDS011;6364;53.590;9.956;2023-03-09T14:48:49;9.32;;;6.18;;
12597;SDS011;6364;53.590;9.956;2023-03-09T14:53:51;9.63;;;6.93;;
12597;SDS011;6364;53.590;9.956;2023-03-09T14:56:18;11.48;;;6.60;;
12597;SDS011;6364;53.590;9.956;2023-03-09T14:58:44;9.57;;;6.93;;
12597;SDS011;6364;53.590;9.956;2023-03-09T15:01:09;9.70;;;6.45;;
12597;SDS011;6364;53.590;9.956;2023-03-09T15:03:34;12.25;;;7.45;;
12597;SDS011;6364;53.590;9.956;2023-03-09T15:06:00;9.20;;;6.72;;
12597;SDS011;6364;53.590;9.956;2023-03-09T15:08:25;9.52;;;6.65;;
12597;SDS011;6364;53.590;9.956;2023-03-09T15:10:50;12.75;;;6.80;;
12597;SDS011;6364;53.590;9.956;2023-03-09T15:13:16;10.25;;;6.88;;
12597;SDS011;6364;53.590;9.956;2023-03-09T15:15:41;10.93;;;6.60;;
12597;SDS011;6364;53.590;9.956;2023-03-09T15:18:07;9.65;;;6.70;;
12597;SDS011;6364;53.590;9.956;2023-03-09T15:20:32;13.98;;;6.82;;
12597;SDS011;6364;53.590;9.956;2023-03-09T15:22:57;13.02;;;6.40;;
12597;SDS011;6364;53.590;9.956;2023-03-09T15:25:23;11.68;;;6.70;;
12597;SDS011;6364;53.590;9.956;2023-03-09T15:27:48;10.85;;;7.10;;
12597;SDS011;6364;53.590;9.956;2023-03-09T15:30:14;10.20;;;6.45;;
12597;SDS011;6364;53.590;9.956;2023-03-09T15:32:41;12.30;;;7.05;;
12597;SDS011;6364;53.590;9.956;2023-03-09T15:35:07;10.02;;;6.93;;
12597;SDS011;6364;53.590;9.956;2023-03-09T15:37:36;10.98;;;6.85;;
12597;SDS011;6364;53.590;9.956;2023-03-09T15:40:01;11.65;;;7.97;;
12597;SDS011;6364;53.590;9.956;2023-03-09T15:42:27;11.48;;;7.00;;
12597;SDS011;6364;53.590;9.956;2023-03-09T15:44:52;9.85;;;7.13;;
12597;SDS011;6364;53.590;9.956;2023-03-09T15:47:17;9.50;;;6.57;;
12597;SDS011;6364;53.590;9.956;2023-03-09T15:49:43;14.77;;;7.00;;
12597;SDS011;6364;53.590;9.956;2023-03-09T15:52:08;13.25;;;7.35;;
12597;SDS011;6364;53.590;9.956;2023-03-09T15:54:34;11.00;;;7.22;;
12597;SDS011;6364;53.590;9.956;2023-03-09T15:56:59;11.45;;;7.85;;
12597;SDS011;6364;53.590;9.956;2023-03-09T15:59:25;12.63;;;8.15;;
12597;SDS011;6364;53.590;9.956;2023-03-09T16:01:50;10.95;;;7.70;;
12597;SDS011;6364;53.590;9.956;2023-03-09T16:04:16;15.18;;;8.32;;
12597;SDS011;6364;53.590;9.956;2023-03-09T16:06:42;13.63;;;7.90;;
12597;SDS011;6364;53.590;9.956;2023-03-09T16:09:07;11.93;;;7.88;;
12597;SDS011;6364;53.590;9.956;2023-03-09T16:11:33;11.35;;;7.47;;